الصفحة الرئيسية
METAR-TAF:

METAR-TAF

مطار :

ناساو, البهاما

دائرة عرض: 25-03N, خط طول: 077-28W, ارتفاع: 3 متر

مراقبة الطقس الحالي

تاريخ ووقت الإصدار 12ساعات و 28 دقيقة قبل الساعة 05:00UTC
ريح 4 عقدة من الشرق
درجة الحرارة 28°درجة مئوية
الرطوبة 79%
ضغط 1020 hPa
الرؤية 10 كم أو أكثر
غيوم متفرقة على ارتفاع 2000 قدم, مزن ركامية عمودية.

METAR: MYNN 210500Z 09004KT 9999 SCT020TCU 28/24 A3011 RMK TCU/SE

زمن: 13:28 (17:28 UTC)

توقعات

تاريخ ووقت الإصدار 12ساعات و 28 دقيقة قبل الساعة 05:00UTC
التوقعات صالحة من21 الساعة 06 UTC إلى 22 الساعة 06 UTC
ريح 4 عقدة من الشرق
الرؤية 10 كم أو أكثر
غيوم قليلة على ارتفاع 1800 قدم, مزنة ركامية.
غيوم متفرقة على ارتفاع 2000 قدم
نظرية الاحتمالات 30% :
مؤقت
من 21 الساعة 18 UTC إلى 21 الساعة 21 UTC
ريح 7 عقدة من الجنوب الشرقي
الرؤية: 8000 متر
غيوم متفرقة على ارتفاع 1500 قدم, مزنة ركامية.
زخات من المطر

TAF: MYNN 210500Z 2106/2206 09004KT 9999 FEW018CB SCT020 PROB30 TEMPO 2118/2121 13007KT 8000 SHRA SCT015CB

أرصاد الطقس والتوقعات من أكثر من 4000 مطار (تقارير الطقس للمطار METAR والتنبؤ بالطقس بالمطارTAF).

المحطات المتاحة هي النقط الصفراء والحمراء على الخريطة.

حرك المؤشر فوق النقطة لمعرفة اسم المحطة.

ثم انقر لمعرفة أرصاد وتوقعات الطقس.

لتغيير الخارطة: اضغط على الأزرار الخضراء مع رمز الصليب الأسود للتكبير. على الزر الأخضر مع شرطة للتصغير، أو على الأسهم الخضراء للخرائط المجاورة.


METAR-TAF: